Rochelle, IL

4:42 PM CST en Diciembre 22, 2014 (GMT -0600)
K9GPC | Change Station
CLOSE
Current Station
Estación meteorológica personal
Location: Rochelle, IL
Altura: 840 ft
Estaciones meteorológicas cercanas
Aviso en curso: Special Statement

Alt 840 ft 41.94 °N, 89.08 °W | Updated 53 minutes ago

Muy nublado
Muy nublado
41.5 ° F
Sensación térmica 39 ° F
N
3.6
Viento Variable Viento desde Este
Gusts 10.5 mph

Hoy
Alta -- | Baja -- ° F
--% Posibilidad de precipitaciones
Ayer
Alta -- | Baja -- ° F
Precip. -- pul
7:21 AM 4:28 PM
Luna nueva, 1% visible
Presión 29.64 pul
Visibilidad 4.0 Millas
Nubes Nublado 600 ft
Vientos helados 39 ° F
Punto de rocío 34 ° F
Humedad 76%
Precipitaciones 0.12 pul
Espesor de la nieve No disponible.
UV 0 de una escala de 12
Polen .10 de una escala de 12
Calidad del aire No disponible.
Flu Activity No disponible.
METAR KRPJ 222235Z AUTO 13011KT 4SM -RA OVC006 02/02 A2964 RMK AO2 T00230021

More Conditions Fewer Conditions

Presión 29.64 pul
Visibilidad 4.0 Millas
Nubes Nublado 600 ft
Vientos helados 39 ° F
Punto de rocío 34 ° F
Humedad 76%
Precipitaciones 0.12 pul
Espesor de la nieve No disponible.
UV 0 de una escala de 12
Polen .10 de una escala de 12
Calidad del aire No disponible.
Flu Activity No disponible.
METAR KRPJ 222235Z AUTO 13011KT 4SM -RA OVC006 02/02 A2964 RMK AO2 T00230021

More Conditions Fewer Conditions

10-Day Weather Forecast

Almanac

Astronomía

Dec. 22, 2014 Salida Puesta
Hora real
Crepúsculo civil
Crepúsculo náutico
Crepúsculo astronómico
Luna
Horas de luz
Horas de luz
Tomorrow will be .
, % of the Moon is Illuminated

Extremos de hoy

Máximos del estado Bajos del estado

Community

WunderPhotos

Upload Photos

1,779,695 ¡fotos cargadas!

WunderBlogs® & News

Nearby

Calidad del aire

  Calidad del aire Índice AQ Contaminante
Not available.

Grosos de nieve

Estación Profundido Altura

Actividad de terremotos

Ciudad Distance Mag. Tiempo y dato
Magnitud mínima muestra es 2,5.

Temperaturas de aguas costeras

Lugar Temperatura

Estaciones meteorológicas cercanas